Time;durP1;ratioP1;P1;durP2;ratioP2;P2;SDS_P1;SDS_P2;PMS_P1;PMS_P2;Temp;Humidity;BMP_temperature;BMP_pressure;BME280_temperature;BME280_humidity;BME280_pressure;Samples;Min_cycle;Max_cycle;Signal;HPM_P1;HPM_P2
2022/07/23 00:00:57;;;;;;;;;;;19.40;56.30;;;;;;5019779;28;20282;-92
2022/07/23 00:03:23;;;;;;;;;;;19.50;56.40;;;;;;5004041;28;19909;-92
2022/07/23 00:05:48;;;;;;;;;;;19.50;56.50;;;;;;5019120;28;20334;-93
2022/07/23 00:08:16;;;;;;;;;;;19.50;56.50;;;;;;5019181;28;19960;-92
2022/07/23 00:10:41;;;;;;;;;;;19.60;56.50;;;;;;5019080;28;19913;-93
2022/07/23 00:13:07;;;;;;;;;;;19.70;56.40;;;;;;5003020;28;19920;-93
2022/07/23 00:15:36;;;;;;;;;;;19.70;56.50;;;;;;5019250;28;19914;-92
2022/07/23 00:18:02;;;;;;;;;;;19.80;56.40;;;;;;5019531;28;19964;-93
2022/07/23 00:20:33;;;;;;;;;;;19.80;56.40;;;;;;5019033;28;20262;-93
2022/07/23 00:23:10;;;;;;;;;;;19.90;56.50;;;;;;5020143;28;19940;-93
2022/07/23 00:25:36;;;;;;;;;;;19.90;56.50;;;;;;5021173;28;19918;-92
2022/07/23 00:28:03;;;;;;;;;;;19.90;56.60;;;;;;5019016;28;19925;-93
2022/07/23 00:30:32;;;;;;;;;;;19.90;56.60;;;;;;5019510;28;19909;-93
2022/07/23 00:33:02;;;;;;;;;;;20.00;56.60;;;;;;5001523;28;20026;-92
2022/07/23 00:35:33;;;;;;;;;;;20.00;56.60;;;;;;5018953;28;19924;-94
2022/07/23 00:37:59;;;;;;;;;;;20.00;56.60;;;;;;5020018;28;20408;-93
2022/07/23 00:40:25;;;;;;;;;;;20.00;56.60;;;;;;5018812;28;19917;-93
2022/07/23 00:42:50;;;;;;;;;;;20.10;56.50;;;;;;5019519;28;19913;-93
2022/07/23 00:45:16;;;;;;;;;;;20.10;56.60;;;;;;5018993;28;20374;-93
2022/07/23 00:47:42;;;;;;;;;;;20.10;56.70;;;;;;5018466;28;19909;-93
2022/07/23 00:50:08;;;;;;;;;;;20.20;56.80;;;;;;5019088;28;20011;-93
2022/07/23 00:52:34;;;;;;;;;;;20.20;56.80;;;;;;5019470;28;19914;-93
2022/07/23 00:55:00;;;;;;;;;;;20.30;56.90;;;;;;5019945;28;19956;-93
2022/07/23 00:57:26;;;;;;;;;;;20.30;56.80;;;;;;5019393;28;19921;-93
2022/07/23 00:59:54;;;;;;;;;;;20.40;56.80;;;;;;5002602;28;19918;-93
2022/07/23 01:02:19;;;;;;;;;;;20.40;56.80;;;;;;5018217;28;19913;-93
2022/07/23 01:04:45;;;;;;;;;;;20.40;56.90;;;;;;5019159;28;19917;-93
2022/07/23 01:07:10;;;;;;;;;;;20.50;56.90;;;;;;5018692;28;19910;-92
2022/07/23 01:09:36;;;;;;;;;;;20.50;56.90;;;;;;5019305;28;20341;-93
2022/07/23 01:12:02;;;;;;;;;;;20.60;56.90;;;;;;5018890;28;19913;-94
2022/07/23 01:14:30;;;;;;;;;;;20.70;56.90;;;;;;5018752;28;20396;-94
2022/07/23 01:16:56;;;;;;;;;;;20.70;56.90;;;;;;5018522;28;19948;-93
2022/07/23 01:19:21;;;;;;;;;;;20.70;56.90;;;;;;5021116;28;19909;-94
2022/07/23 01:21:49;;;;;;;;;;;20.70;57.00;;;;;;5022449;28;19917;-93
2022/07/23 01:24:15;;;;;;;;;;;20.70;57.00;;;;;;5019008;28;19941;-93
2022/07/23 01:26:43;;;;;;;;;;;20.70;57.00;;;;;;5019610;28;19918;-93
2022/07/23 01:29:12;;;;;;;;;;;20.80;57.00;;;;;;5018122;28;20388;-94
2022/07/23 01:31:38;;;;;;;;;;;20.70;57.00;;;;;;5017277;28;19913;-94
2022/07/23 01:34:04;;;;;;;;;;;20.80;57.00;;;;;;5017356;28;19917;-93
2022/07/23 01:36:30;;;;;;;;;;;20.80;56.90;;;;;;5016610;28;20307;-93
2022/07/23 01:38:55;;;;;;;;;;;20.90;56.90;;;;;;5018799;28;20015;-92
2022/07/23 01:41:21;;;;;;;;;;;20.90;57.00;;;;;;5019384;28;19996;-93
2022/07/23 01:43:49;;;;;;;;;;;20.80;57.20;;;;;;5017764;28;19925;-93
2022/07/23 01:46:15;;;;;;;;;;;20.80;57.90;;;;;;5017097;28;19921;-92
2022/07/23 01:48:40;;;;;;;;;;;20.70;58.70;;;;;;5016277;28;19920;-92
2022/07/23 01:51:06;;;;;;;;;;;20.70;59.30;;;;;;5016939;28;20329;-91
2022/07/23 01:53:32;;;;;;;;;;;20.70;60.00;;;;;;5014611;28;19972;-90
2022/07/23 01:55:58;;;;;;;;;;;20.60;60.60;;;;;;5015229;28;19918;-91
2022/07/23 01:58:24;;;;;;;;;;;20.60;61.10;;;;;;5015618;28;19910;-91
2022/07/23 02:00:49;;;;;;;;;;;20.50;61.60;;;;;;5017743;28;20368;-91
2022/07/23 02:03:15;;;;;;;;;;;20.50;62.10;;;;;;5017942;28;19913;-94
2022/07/23 02:05:40;;;;;;;;;;;20.40;62.60;;;;;;5016627;28;19917;-90
2022/07/23 02:08:06;;;;;;;;;;;20.30;63.10;;;;;;5018478;28;19921;-92
2022/07/23 02:10:32;;;;;;;;;;;20.30;63.90;;;;;;5017945;28;19949;-92
2022/07/23 02:12:57;;;;;;;;;;;20.30;64.30;;;;;;5016125;28;19975;-91
2022/07/23 02:15:23;;;;;;;;;;;20.30;64.60;;;;;;5016560;28;19917;-92
2022/07/23 02:17:49;;;;;;;;;;;20.30;64.90;;;;;;5019100;28;19963;-91
2022/07/23 02:20:14;;;;;;;;;;;20.30;65.20;;;;;;5018274;28;19920;-91
2022/07/23 02:22:47;;;;;;;;;;;20.30;65.30;;;;;;4999995;28;20012;-92
2022/07/23 02:28:28;;;;;;;;;;;20.30;65.40;;;;;;4946458;29;20287;-90
2022/07/23 02:30:56;;;;;;;;;;;20.30;65.50;;;;;;4980454;28;20380;-91
2022/07/23 02:33:22;;;;;;;;;;;20.30;65.50;;;;;;5000655;28;20309;-92
2022/07/23 02:35:47;;;;;;;;;;;20.30;65.40;;;;;;5015899;28;19921;-91
2022/07/23 02:38:13;;;;;;;;;;;20.30;65.40;;;;;;5016237;28;19913;-93
2022/07/23 02:40:38;;;;;;;;;;;20.30;65.40;;;;;;4998096;28;19920;-91
2022/07/23 02:43:04;;;;;;;;;;;20.30;65.50;;;;;;5014369;28;19920;-91
2022/07/23 02:45:37;;;;;;;;;;;20.30;65.50;;;;;;5015593;28;19918;-92
2022/07/23 02:48:03;;;;;;;;;;;20.30;65.60;;;;;;5014947;28;19918;-91
2022/07/23 02:50:28;;;;;;;;;;;20.30;65.60;;;;;;5014249;28;19910;-91
2022/07/23 02:52:54;;;;;;;;;;;20.30;65.60;;;;;;4998129;28;19922;-92
2022/07/23 02:55:19;;;;;;;;;;;20.30;65.70;;;;;;5013893;28;19910;-92
2022/07/23 02:57:45;;;;;;;;;;;20.30;65.60;;;;;;5014250;28;20349;-90
2022/07/23 03:00:10;;;;;;;;;;;20.30;65.50;;;;;;5015231;28;19909;-91
2022/07/23 03:02:36;;;;;;;;;;;20.30;65.60;;;;;;5015556;28;19989;-91
2022/07/23 03:05:01;;;;;;;;;;;20.40;65.50;;;;;;5015182;28;20004;-91
2022/07/23 03:07:27;;;;;;;;;;;20.40;65.50;;;;;;5014117;28;19928;-91
2022/07/23 03:09:52;;;;;;;;;;;20.30;65.50;;;;;;5015706;28;19929;-91
2022/07/23 03:12:17;;;;;;;;;;;20.30;65.50;;;;;;5015767;28;19948;-92
2022/07/23 03:14:43;;;;;;;;;;;20.30;65.50;;;;;;5015705;28;19909;-92
2022/07/23 03:17:08;;;;;;;;;;;20.30;65.40;;;;;;5014720;28;20380;-91
2022/07/23 03:19:34;;;;;;;;;;;20.30;65.50;;;;;;5015088;28;19925;-91
2022/07/23 03:21:59;;;;;;;;;;;20.30;65.40;;;;;;5015266;28;19956;-91
2022/07/23 03:24:53;;;;;;;;;;;20.30;65.40;;;;;;5015249;28;19910;-91
2022/07/23 03:27:10;;;;;;;;;;;20.30;65.30;;;;;;5015717;28;19924;-91
2022/07/23 03:29:36;;;;;;;;;;;20.30;65.20;;;;;;5015041;28;20425;-91
2022/07/23 03:32:02;;;;;;;;;;;20.30;65.10;;;;;;5015392;28;20020;-91
2022/07/23 03:34:28;;;;;;;;;;;20.20;64.90;;;;;;5018800;28;19914;-91
2022/07/23 03:36:53;;;;;;;;;;;20.20;64.80;;;;;;5020868;28;19968;-91
2022/07/23 03:39:19;;;;;;;;;;;20.00;64.70;;;;;;5002750;28;19910;-90
2022/07/23 03:41:44;;;;;;;;;;;20.00;64.80;;;;;;5020854;28;19917;-91
2022/07/23 03:44:10;;;;;;;;;;;19.90;64.80;;;;;;5020459;28;19936;-91
2022/07/23 03:46:35;;;;;;;;;;;19.90;64.80;;;;;;5008881;28;19921;-91
2022/07/23 03:49:01;;;;;;;;;;;19.80;64.80;;;;;;5011035;28;19989;-91
2022/07/23 03:51:26;;;;;;;;;;;19.80;64.80;;;;;;4991433;28;20282;-90
2022/07/23 03:53:51;;;;;;;;;;;19.80;64.90;;;;;;5008462;28;19988;-91
2022/07/23 03:56:17;;;;;;;;;;;19.80;64.90;;;;;;5014365;28;19963;-91
2022/07/23 03:58:42;;;;;;;;;;;19.80;65.10;;;;;;5000631;28;19941;-90
2022/07/23 04:01:08;;;;;;;;;;;19.80;65.10;;;;;;5016501;28;20290;-90
2022/07/23 04:03:33;;;;;;;;;;;19.80;65.10;;;;;;5017659;28;20270;-91
2022/07/23 04:05:59;;;;;;;;;;;19.80;65.10;;;;;;5017573;28;20004;-91
2022/07/23 04:08:27;;;;;;;;;;;19.80;65.10;;;;;;5018748;28;19925;-90
2022/07/23 04:10:53;;;;;;;;;;;19.70;65.10;;;;;;5008892;28;20388;-91
2022/07/23 04:13:18;;;;;;;;;;;19.70;65.10;;;;;;5018518;28;19926;-90
2022/07/23 04:15:43;;;;;;;;;;;19.70;65.00;;;;;;5022302;28;19910;-90
2022/07/23 04:18:09;;;;;;;;;;;19.70;65.00;;;;;;5026357;28;19922;-90
2022/07/23 04:20:34;;;;;;;;;;;19.70;65.00;;;;;;5002634;28;20442;-91
2022/07/23 04:23:00;;;;;;;;;;;19.70;65.20;;;;;;5019295;28;19917;-91
2022/07/23 04:25:25;;;;;;;;;;;19.70;65.40;;;;;;5001992;28;19978;-91
2022/07/23 04:27:51;;;;;;;;;;;19.80;65.80;;;;;;5018398;28;19991;-91
2022/07/23 04:30:16;;;;;;;;;;;19.80;66.00;;;;;;5018948;28;19915;-91
2022/07/23 04:32:42;;;;;;;;;;;19.90;66.20;;;;;;5001094;28;19928;-91
2022/07/23 04:35:08;;;;;;;;;;;20.00;66.30;;;;;;5012620;28;20622;-91
2022/07/23 04:37:33;;;;;;;;;;;20.00;66.30;;;;;;5000283;28;20412;-91
2022/07/23 04:39:58;;;;;;;;;;;20.10;66.40;;;;;;5011028;28;20344;-90
2022/07/23 04:42:24;;;;;;;;;;;20.10;66.40;;;;;;4997577;28;20270;-90
2022/07/23 04:44:49;;;;;;;;;;;20.10;66.30;;;;;;4987037;28;20348;-90
2022/07/23 04:47:15;;;;;;;;;;;20.20;66.50;;;;;;5000222;28;19933;-90
2022/07/23 04:49:40;;;;;;;;;;;20.30;67.00;;;;;;5009408;28;19953;-91
2022/07/23 04:52:06;;;;;;;;;;;20.60;68.10;;;;;;4990035;28;19930;-90
2022/07/23 04:54:32;;;;;;;;;;;20.90;68.90;;;;;;4989438;28;19913;-90
2022/07/23 04:56:57;;;;;;;;;;;21.30;69.60;;;;;;4994724;28;19976;-90
2022/07/23 04:59:22;;;;;;;;;;;21.70;70.20;;;;;;5016547;28;19993;-91
2022/07/23 05:01:48;;;;;;;;;;;22.20;70.30;;;;;;5010518;28;19917;-90
2022/07/23 05:04:13;;;;;;;;;;;22.60;70.50;;;;;;5016351;28;19921;-90
2022/07/23 05:06:39;;;;;;;;;;;23.00;70.50;;;;;;4991226;28;19918;-90
2022/07/23 05:09:04;;;;;;;;;;;23.40;70.50;;;;;;5016999;28;19914;-90
2022/07/23 05:11:30;;;;;;;;;;;23.80;70.50;;;;;;5003540;28;19917;-90
2022/07/23 05:13:55;;;;;;;;;;;24.20;70.70;;;;;;5017277;28;20326;-89
2022/07/23 05:16:21;;;;;;;;;;;24.60;70.70;;;;;;4999103;28;19972;-90
2022/07/23 05:18:46;;;;;;;;;;;25.00;70.20;;;;;;5015183;28;20324;-90
2022/07/23 05:21:11;;;;;;;;;;;25.40;70.10;;;;;;5010977;28;19972;-91
2022/07/23 05:23:37;;;;;;;;;;;25.80;70.10;;;;;;4999339;28;19913;-90
2022/07/23 05:26:02;;;;;;;;;;;26.20;70.10;;;;;;5002003;28;19909;-90
2022/07/23 05:28:28;;;;;;;;;;;26.60;70.40;;;;;;4993505;28;20006;-89
2022/07/23 05:30:53;;;;;;;;;;;27.00;70.10;;;;;;4992617;28;19913;-90
2022/07/23 05:33:19;;;;;;;;;;;27.40;69.80;;;;;;5016505;28;19927;-90
2022/07/23 05:35:45;;;;;;;;;;;27.70;69.80;;;;;;4999498;28;19914;-89
2022/07/23 05:38:10;;;;;;;;;;;28.10;69.60;;;;;;5000646;28;19923;-89
2022/07/23 05:40:36;;;;;;;;;;;28.50;69.60;;;;;;5016320;28;19948;-90
2022/07/23 05:43:01;;;;;;;;;;;28.90;69.30;;;;;;4999570;28;19918;-90
2022/07/23 05:45:26;;;;;;;;;;;29.30;68.80;;;;;;5016946;28;19927;-89
2022/07/23 05:47:55;;;;;;;;;;;29.60;68.50;;;;;;5002661;28;19921;-89
2022/07/23 05:50:20;;;;;;;;;;;29.90;68.20;;;;;;4992662;28;19957;-90
2022/07/23 05:52:46;;;;;;;;;;;30.20;68.10;;;;;;4997542;28;20267;-89
2022/07/23 05:55:12;;;;;;;;;;;30.50;67.70;;;;;;4996327;28;20250;-90
2022/07/23 05:57:38;;;;;;;;;;;30.80;67.70;;;;;;5000106;28;19918;-90
2022/07/23 06:00:04;;;;;;;;;;;31.10;67.30;;;;;;4994456;28;19960;-90
2022/07/23 06:02:30;;;;;;;;;;;31.30;66.90;;;;;;5000219;28;20016;-90
2022/07/23 06:04:55;;;;;;;;;;;31.40;67.00;;;;;;5000138;28;20395;-91
2022/07/23 06:07:21;;;;;;;;;;;31.70;67.70;;;;;;4999073;28;19922;-90
2022/07/23 06:09:48;;;;;;;;;;;32.00;67.70;;;;;;5021158;28;19977;-91
2022/07/23 06:12:14;;;;;;;;;;;32.30;68.30;;;;;;5017846;28;20358;-90
2022/07/23 06:14:40;;;;;;;;;;;32.60;68.00;;;;;;5000583;28;20348;-91
2022/07/23 06:17:07;;;;;;;;;;;32.80;68.00;;;;;;4984654;28;19921;-92
2022/07/23 06:19:33;;;;;;;;;;;33.10;68.30;;;;;;5001075;28;19916;-90
2022/07/23 06:21:58;;;;;;;;;;;33.40;68.00;;;;;;5018351;28;20397;-91
2022/07/23 06:24:24;;;;;;;;;;;33.70;67.50;;;;;;5016996;28;19910;-91
2022/07/23 06:26:49;;;;;;;;;;;33.90;67.70;;;;;;5017955;28;19978;-91
2022/07/23 06:29:15;;;;;;;;;;;34.20;67.40;;;;;;5018535;28;19948;-91
2022/07/23 06:31:40;;;;;;;;;;;34.40;66.80;;;;;;5018990;28;19918;-90
2022/07/23 06:34:05;;;;;;;;;;;34.70;67.70;;;;;;5000366;28;19957;-84
2022/07/23 06:36:31;;;;;;;;;;;35.00;66.90;;;;;;4996128;28;19918;-83
2022/07/23 06:38:56;;;;;;;;;;;35.30;67.80;;;;;;5013597;28;19917;-85
2022/07/23 06:41:25;;;;;;;;;;;35.60;68.40;;;;;;5014140;28;20036;-85
2022/07/23 06:43:50;;;;;;;;;;;36.10;69.00;;;;;;5014081;28;19910;-84
2022/07/23 06:46:16;;;;;;;;;;;36.40;68.50;;;;;;5013679;28;19921;-85
2022/07/23 06:48:41;;;;;;;;;;;36.80;68.20;;;;;;5012819;28;19921;-85
2022/07/23 06:51:07;;;;;;;;;;;37.30;68.50;;;;;;5012755;28;20392;-85
2022/07/23 06:53:32;;;;;;;;;;;37.60;67.80;;;;;;5012386;28;19921;-84
2022/07/23 06:55:58;;;;;;;;;;;38.00;67.00;;;;;;5013826;28;19956;-84
2022/07/23 06:58:23;;;;;;;;;;;38.30;65.70;;;;;;5014299;28;19914;-85
2022/07/23 07:00:49;;;;;;;;;;;38.60;64.40;;;;;;4996221;28;19914;-85
2022/07/23 07:03:16;;;;;;;;;;;38.80;63.80;;;;;;5012454;28;20269;-85
2022/07/23 07:05:41;;;;;;;;;;;39.10;63.80;;;;;;5013599;28;20000;-85
2022/07/23 07:08:07;;;;;;;;;;;39.30;62.60;;;;;;4996073;28;19949;-85
2022/07/23 07:10:32;;;;;;;;;;;39.50;62.10;;;;;;5013388;28;19914;-86
2022/07/23 07:12:58;;;;;;;;;;;39.70;59.10;;;;;;5014082;28;20026;-85
2022/07/23 07:15:23;;;;;;;;;;;39.80;52.60;;;;;;5012283;28;19917;-85
2022/07/23 07:17:49;;;;;;;;;;;39.90;55.00;;;;;;5012155;28;20004;-85
2022/07/23 07:20:14;;;;;;;;;;;39.90;50.50;;;;;;5015762;28;19973;-85
2022/07/23 07:22:40;;;;;;;;;;;40.00;48.30;;;;;;4999832;28;19913;-86
2022/07/23 07:25:06;;;;;;;;;;;40.10;49.90;;;;;;5013735;28;19918;-85
2022/07/23 07:27:31;;;;;;;;;;;40.20;49.70;;;;;;5013365;28;19939;-85
2022/07/23 07:29:57;;;;;;;;;;;40.40;47.60;;;;;;5000355;28;20422;-85
2022/07/23 07:32:22;;;;;;;;;;;40.70;49.10;;;;;;4980228;28;19917;-85
2022/07/23 07:34:48;;;;;;;;;;;40.70;43.80;;;;;;5004081;28;19949;-85
2022/07/23 07:37:13;;;;;;;;;;;40.40;44.70;;;;;;5015687;28;19923;-85
2022/07/23 07:39:39;;;;;;;;;;;40.10;45.20;;;;;;5015751;28;19910;-85
2022/07/23 07:42:04;;;;;;;;;;;39.60;38.60;;;;;;4999152;28;19922;-84
2022/07/23 07:44:30;;;;;;;;;;;38.90;39.70;;;;;;5016927;28;19920;-84
2022/07/23 07:46:55;;;;;;;;;;;38.30;39.50;;;;;;5015768;28;19921;-84
2022/07/23 07:49:21;;;;;;;;;;;37.90;41.10;;;;;;5016913;28;19957;-84
2022/07/23 07:51:46;;;;;;;;;;;37.40;38.70;;;;;;5015758;28;19929;-85
2022/07/23 07:54:15;;;;;;;;;;;36.80;34.30;;;;;;5012402;28;20339;-85
2022/07/23 07:56:40;;;;;;;;;;;36.60;36.70;;;;;;4988152;28;20274;-85
2022/07/23 07:59:07;;;;;;;;;;;36.70;37.10;;;;;;4984917;28;19917;-85
2022/07/23 08:01:32;;;;;;;;;;;36.80;35.20;;;;;;5016713;28;19918;-85
2022/07/23 08:03:58;;;;;;;;;;;36.90;34.70;;;;;;5009639;28;19924;-84
2022/07/23 08:06:24;;;;;;;;;;;37.10;35.30;;;;;;5008783;28;20369;-84
2022/07/23 08:08:50;;;;;;;;;;;37.20;35.50;;;;;;4993247;28;20258;-84
2022/07/23 08:11:15;;;;;;;;;;;37.20;37.70;;;;;;4987415;28;19918;-84
2022/07/23 08:13:41;;;;;;;;;;;37.50;39.10;;;;;;5014209;28;20385;-85
2022/07/23 08:16:06;;;;;;;;;;;37.80;36.20;;;;;;5015433;28;19918;-85
2022/07/23 08:18:32;;;;;;;;;;;37.90;33.90;;;;;;5005514;28;19961;-85
2022/07/23 08:20:57;;;;;;;;;;;37.50;31.80;;;;;;5007248;28;20008;-85
2022/07/23 08:23:23;;;;;;;;;;;37.10;33.20;;;;;;4995409;28;19960;-84
2022/07/23 08:25:48;;;;;;;;;;;37.10;35.20;;;;;;4979474;28;19940;-85
2022/07/23 08:28:14;;;;;;;;;;;37.40;33.90;;;;;;4996672;28;19910;-84
2022/07/23 08:30:41;;;;;;;;;;;37.90;34.10;;;;;;4999063;28;19917;-84
2022/07/23 08:33:11;;;;;;;;;;;38.50;33.40;;;;;;4993118;28;20026;-85
2022/07/23 08:35:37;;;;;;;;;;;38.70;31.80;;;;;;4993519;28;19924;-85
2022/07/23 08:38:04;;;;;;;;;;;38.80;29.80;;;;;;5001650;28;19959;-85
2022/07/23 08:40:31;;;;;;;;;;;39.10;30.00;;;;;;4995134;28;19961;-86
2022/07/23 08:42:56;;;;;;;;;;;39.30;30.20;;;;;;4978927;28;19922;-85
2022/07/23 08:45:23;;;;;;;;;;;39.50;30.10;;;;;;5015873;28;19917;-84
2022/07/23 08:47:49;;;;;;;;;;;39.60;30.10;;;;;;5034270;28;19921;-85
2022/07/23 08:50:15;;;;;;;;;;;39.30;27.50;;;;;;5007824;28;19913;-88
2022/07/23 08:52:40;;;;;;;;;;;38.90;27.00;;;;;;5012942;28;20380;-85
2022/07/23 08:55:07;;;;;;;;;;;38.40;27.70;;;;;;4995957;28;19913;-85
2022/07/23 08:57:34;;;;;;;;;;;37.90;27.20;;;;;;5012627;28;19925;-85
2022/07/23 08:59:59;;;;;;;;;;;37.40;27.30;;;;;;5012131;28;20003;-85
2022/07/23 09:02:25;;;;;;;;;;;36.90;27.00;;;;;;4996021;28;20409;-85
2022/07/23 09:04:50;;;;;;;;;;;36.70;28.10;;;;;;5011897;28;20366;-85
2022/07/23 09:07:15;;;;;;;;;;;36.90;28.20;;;;;;5013622;28;19923;-85
2022/07/23 09:09:41;;;;;;;;;;;37.30;28.80;;;;;;5013705;28;19925;-83
2022/07/23 09:12:07;;;;;;;;;;;37.80;28.60;;;;;;5008803;28;19913;-86
2022/07/23 09:14:37;;;;;;;;;;;38.40;28.20;;;;;;5014399;28;19924;-87
2022/07/23 09:17:13;;;;;;;;;;;39.00;27.90;;;;;;5009660;28;19968;-86
2022/07/23 09:19:39;;;;;;;;;;;39.70;27.60;;;;;;5011298;28;19917;-86
2022/07/23 09:22:17;;;;;;;;;;;40.50;27.00;;;;;;5013424;28;20362;-86
2022/07/23 09:25:00;;;;;;;;;;;41.20;26.00;;;;;;5012639;28;19913;-87
2022/07/23 09:27:44;;;;;;;;;;;41.50;25.40;;;;;;5010983;28;19983;-86
2022/07/23 09:30:10;;;;;;;;;;;41.50;24.90;;;;;;5011310;28;19913;-85
2022/07/23 09:32:35;;;;;;;;;;;41.40;22.80;;;;;;4995106;28;19929;-85
2022/07/23 09:35:01;;;;;;;;;;;40.80;22.60;;;;;;5000417;28;19917;-85
2022/07/23 09:37:26;;;;;;;;;;;40.10;22.60;;;;;;5010953;28;20011;-85
2022/07/23 09:40:02;;;;;;;;;;;39.60;23.00;;;;;;5011533;28;20401;-85
2022/07/23 09:42:28;;;;;;;;;;;39.50;23.90;;;;;;5010445;28;20013;-85
2022/07/23 09:44:55;;;;;;;;;;;39.40;23.90;;;;;;5009869;28;19992;-85
2022/07/23 09:47:21;;;;;;;;;;;39.20;23.60;;;;;;5010240;28;19921;-85
2022/07/23 09:50:04;;;;;;;;;;;39.10;23.50;;;;;;4993851;28;20357;-85
2022/07/23 09:52:31;;;;;;;;;;;39.20;23.70;;;;;;4993737;28;19967;-86
2022/07/23 09:55:00;;;;;;;;;;;39.30;23.90;;;;;;4975636;28;19942;-85
2022/07/23 09:57:27;;;;;;;;;;;39.50;23.30;;;;;;4998654;28;20596;-85
2022/07/23 09:59:52;;;;;;;;;;;40.00;23.80;;;;;;4992555;28;19918;-85
2022/07/23 10:02:19;;;;;;;;;;;40.70;23.80;;;;;;5007905;28;19935;-85
2022/07/23 10:04:45;;;;;;;;;;;41.00;23.50;;;;;;5003388;28;19925;-85
2022/07/23 10:07:12;;;;;;;;;;;41.40;23.60;;;;;;4998919;28;20397;-86
2022/07/23 10:09:38;;;;;;;;;;;42.10;23.20;;;;;;5004942;28;20404;-85
2022/07/23 10:14:38;;;;;;;;;;;42.40;20.90;;;;;;5012681;28;20365;-88
2022/07/23 10:17:04;;;;;;;;;;;41.80;20.90;;;;;;4978771;28;19921;-88
2022/07/23 10:19:30;;;;;;;;;;;41.90;21.60;;;;;;4996749;28;20028;-88
2022/07/23 10:22:16;;;;;;;;;;;42.30;21.80;;;;;;5000347;28;19928;-88
2022/07/23 10:25:00;;;;;;;;;;;42.80;21.60;;;;;;4992232;28;19918;-88
2022/07/23 10:27:44;;;;;;;;;;;43.40;21.60;;;;;;5007490;28;19921;-88
2022/07/23 10:30:19;;;;;;;;;;;44.10;21.10;;;;;;4980847;28;19918;-88
2022/07/23 10:32:44;;;;;;;;;;;44.60;20.40;;;;;;5008650;28;19924;-88
2022/07/23 10:35:15;;;;;;;;;;;44.60;20.30;;;;;;5008482;28;19918;-88
2022/07/23 10:37:47;;;;;;;;;;;44.70;20.40;;;;;;5014947;28;19967;-89
2022/07/23 10:40:14;;;;;;;;;;;44.80;20.10;;;;;;4996576;28;19910;-88
2022/07/23 10:42:40;;;;;;;;;;;44.30;19.70;;;;;;4996901;28;20396;-89
2022/07/23 10:45:27;;;;;;;;;;;43.50;19.50;;;;;;5022871;28;20353;-88
2022/07/23 10:47:53;;;;;;;;;;;43.10;18.90;;;;;;5029990;28;19925;-88
2022/07/23 10:50:31;;;;;;;;;;;42.90;19.50;;;;;;5010126;28;19920;-89
2022/07/23 10:53:09;;;;;;;;;;;42.40;19.70;;;;;;5011521;28;19917;-89
2022/07/23 10:55:37;;;;;;;;;;;42.00;20.10;;;;;;5021526;28;19983;-88
2022/07/23 10:58:04;;;;;;;;;;;42.10;20.20;;;;;;5012196;28;19920;-89
2022/07/23 11:00:30;;;;;;;;;;;42.50;20.50;;;;;;5012659;28;19918;-89
2022/07/23 11:03:00;;;;;;;;;;;42.90;20.70;;;;;;4997505;28;19921;-89
2022/07/23 11:05:46;;;;;;;;;;;43.40;20.70;;;;;;5018250;28;20278;-89
2022/07/23 11:08:14;;;;;;;;;;;44.00;20.40;;;;;;5002161;28;19980;-89
2022/07/23 11:10:44;;;;;;;;;;;44.40;20.30;;;;;;5001708;28;19913;-89
2022/07/23 11:13:22;;;;;;;;;;;44.90;20.00;;;;;;5009573;28;19913;-90
2022/07/23 11:16:08;;;;;;;;;;;45.40;19.50;;;;;;4994891;28;19930;-88
2022/07/23 11:18:40;;;;;;;;;;;45.80;19.40;;;;;;5012543;28;20348;-89
2022/07/23 11:21:34;;;;;;;;;;;46.20;19.10;;;;;;5014770;28;19913;-88
2022/07/23 11:24:03;;;;;;;;;;;46.40;18.50;;;;;;5015492;28;20385;-88
2022/07/23 11:26:37;;;;;;;;;;;46.60;18.30;;;;;;5015734;28;19913;-88
2022/07/23 11:29:33;;;;;;;;;;;46.70;18.10;;;;;;5017162;28;19917;-87
2022/07/23 11:32:00;;;;;;;;;;;46.50;17.20;;;;;;5000248;28;20001;-87
2022/07/23 11:34:25;;;;;;;;;;;46.50;17.50;;;;;;5017211;28;19921;-88
2022/07/23 11:36:51;;;;;;;;;;;46.20;17.70;;;;;;4999090;28;20001;-88
2022/07/23 11:39:16;;;;;;;;;;;45.50;18.00;;;;;;5015399;28;20403;-87
2022/07/23 11:41:45;;;;;;;;;;;44.80;18.10;;;;;;4999707;28;20293;-87
2022/07/23 11:44:30;;;;;;;;;;;44.40;18.70;;;;;;5016527;28;19917;-88
2022/07/23 11:46:56;;;;;;;;;;;44.60;18.80;;;;;;5016509;28;19921;-87
2022/07/23 11:49:22;;;;;;;;;;;45.20;18.30;;;;;;5016507;28;20568;-86
2022/07/23 11:51:47;;;;;;;;;;;45.50;18.50;;;;;;5017189;28;19988;-87
2022/07/23 11:54:13;;;;;;;;;;;45.70;18.10;;;;;;5017238;28;20033;-88
2022/07/23 11:56:54;;;;;;;;;;;45.70;18.00;;;;;;5015302;28;19928;-89
2022/07/23 11:59:20;;;;;;;;;;;45.50;18.00;;;;;;5014949;28;19914;-88
2022/07/23 12:01:56;;;;;;;;;;;45.50;18.10;;;;;;5014531;28;19925;-88
2022/07/23 12:04:22;;;;;;;;;;;45.80;17.70;;;;;;5020828;28;20289;-87
2022/07/23 12:06:47;;;;;;;;;;;46.00;17.60;;;;;;5018629;28;19913;-88
2022/07/23 12:09:13;;;;;;;;;;;46.20;17.40;;;;;;5018562;28;19920;-87
2022/07/23 12:11:38;;;;;;;;;;;46.10;17.30;;;;;;5015366;28;19914;-87
2022/07/23 12:14:04;;;;;;;;;;;46.00;17.20;;;;;;5017869;28;19978;-87
2022/07/23 12:16:29;;;;;;;;;;;46.20;17.20;;;;;;5036084;28;19935;-86
2022/07/23 12:18:56;;;;;;;;;;;46.30;16.70;;;;;;5036507;28;19917;-87
2022/07/23 12:21:22;;;;;;;;;;;46.20;16.70;;;;;;5015229;28;19920;-87
2022/07/23 12:23:48;;;;;;;;;;;46.10;16.80;;;;;;5015744;28;19921;-88
2022/07/23 12:26:13;;;;;;;;;;;46.20;16.90;;;;;;5016437;28;20342;-87
2022/07/23 12:28:39;;;;;;;;;;;46.30;16.80;;;;;;4997563;28;20023;-88
2022/07/23 12:31:05;;;;;;;;;;;46.30;16.90;;;;;;4997765;28;19996;-87
2022/07/23 12:33:31;;;;;;;;;;;46.30;17.00;;;;;;5013702;28;19925;-88
2022/07/23 12:35:59;;;;;;;;;;;46.40;16.80;;;;;;5028401;28;19928;-90
2022/07/23 12:38:25;;;;;;;;;;;46.40;16.80;;;;;;5033811;28;20254;-88
2022/07/23 12:40:53;;;;;;;;;;;46.30;16.70;;;;;;5019206;28;20358;-87
2022/07/23 12:43:21;;;;;;;;;;;46.20;16.90;;;;;;4997486;28;19921;-87
2022/07/23 12:45:49;;;;;;;;;;;46.20;16.90;;;;;;5029168;28;19925;-87
2022/07/23 12:48:36;;;;;;;;;;;46.00;16.90;;;;;;5033537;28;20380;-87
2022/07/23 12:51:22;;;;;;;;;;;45.80;17.00;;;;;;5016777;28;19918;-87
2022/07/23 12:53:48;;;;;;;;;;;45.60;17.10;;;;;;5006371;28;20293;-87
2022/07/23 12:56:15;;;;;;;;;;;45.40;17.30;;;;;;4996254;28;20529;-87
2022/07/23 12:58:48;;;;;;;;;;;45.00;17.40;;;;;;5026351;28;20397;-87
2022/07/23 13:01:20;;;;;;;;;;;44.70;17.30;;;;;;5032597;28;19917;-87
2022/07/23 13:03:54;;;;;;;;;;;44.00;17.40;;;;;;5021298;28;19967;-87
2022/07/23 13:06:19;;;;;;;;;;;43.30;17.80;;;;;;5031013;28;20000;-87
2022/07/23 13:08:44;;;;;;;;;;;42.80;18.30;;;;;;5022301;28;20381;-87
2022/07/23 13:11:10;;;;;;;;;;;42.20;18.60;;;;;;5031294;28;19917;-87
2022/07/23 13:13:35;;;;;;;;;;;41.60;18.70;;;;;;5015155;28;19917;-86
2022/07/23 13:16:01;;;;;;;;;;;41.00;18.80;;;;;;5015404;28;19921;-87
2022/07/23 13:18:27;;;;;;;;;;;40.20;19.30;;;;;;4996532;28;19925;-87
2022/07/23 13:20:53;;;;;;;;;;;39.70;20.10;;;;;;5008055;28;19971;-87
2022/07/23 13:23:19;;;;;;;;;;;39.30;20.60;;;;;;4999182;28;19973;-86
2022/07/23 13:25:45;;;;;;;;;;;39.00;20.90;;;;;;5017488;28;19958;-87
2022/07/23 13:28:10;;;;;;;;;;;38.60;21.20;;;;;;5012448;28;19917;-87
2022/07/23 13:30:36;;;;;;;;;;;38.30;21.60;;;;;;5016428;28;20079;-86
2022/07/23 13:33:03;;;;;;;;;;;37.90;21.40;;;;;;5022272;28;20024;-88
2022/07/23 13:35:28;;;;;;;;;;;37.60;21.80;;;;;;5010790;28;19917;-87
2022/07/23 13:37:54;;;;;;;;;;;37.30;22.10;;;;;;5016309;28;19921;-87
2022/07/23 13:40:20;;;;;;;;;;;37.00;22.40;;;;;;4990761;28;21475;-86
2022/07/23 13:42:45;;;;;;;;;;;36.80;22.80;;;;;;5021247;28;19928;-86
2022/07/23 13:45:11;;;;;;;;;;;36.70;22.90;;;;;;4997383;28;19913;-87
2022/07/23 13:47:37;;;;;;;;;;;36.80;23.00;;;;;;4999800;28;19979;-86
2022/07/23 13:50:03;;;;;;;;;;;36.90;23.00;;;;;;5015751;28;19925;-86
2022/07/23 13:52:33;;;;;;;;;;;36.90;22.70;;;;;;5001950;28;19925;-86
2022/07/23 13:55:00;;;;;;;;;;;36.70;22.90;;;;;;4993844;28;19921;-87
2022/07/23 13:57:25;;;;;;;;;;;36.60;23.00;;;;;;5015019;28;20274;-87
2022/07/23 13:59:51;;;;;;;;;;;36.50;23.20;;;;;;5015345;28;19920;-87
2022/07/23 14:02:17;;;;;;;;;;;36.30;23.40;;;;;;5021022;28;19921;-87
2022/07/23 14:04:43;;;;;;;;;;;36.30;23.60;;;;;;5019045;28;19913;-87
2022/07/23 14:07:09;;;;;;;;;;;36.40;23.60;;;;;;5020086;28;19920;-87
2022/07/23 14:09:35;;;;;;;;;;;36.70;23.70;;;;;;5014678;28;19940;-87
2022/07/23 14:12:00;;;;;;;;;;;36.70;23.40;;;;;;5017637;28;19913;-87
2022/07/23 14:14:26;;;;;;;;;;;36.80;23.00;;;;;;5001187;28;19975;-88
2022/07/23 14:16:51;;;;;;;;;;;36.80;23.00;;;;;;5017972;28;19913;-87
2022/07/23 14:19:17;;;;;;;;;;;36.80;22.80;;;;;;5007352;28;19924;-87
2022/07/23 14:21:43;;;;;;;;;;;36.80;22.90;;;;;;5014274;28;19913;-87